Time;durP1;ratioP1;P1;durP2;ratioP2;P2;SDS_P1;SDS_P2;PMS_P1;PMS_P2;Temp;Humidity;BMP_temperature;BMP_pressure;BME280_temperature;BME280_humidity;BME280_pressure;Samples;Min_cycle;Max_cycle;Signal;HPM_P1;HPM_P2
2023/05/15 00:00:43;;;;;;;53.65;31.77;;;12.30;99.90;;;;;;5058251;28;20036;-71
2023/05/15 00:03:08;;;;;;;54.65;30.58;;;12.30;99.90;;;;;;5075013;28;20071;-71
2023/05/15 00:05:34;;;;;;;54.97;31.13;;;12.30;99.90;;;;;;5074709;28;20063;-71
2023/05/15 00:08:00;;;;;;;52.72;30.00;;;12.20;99.90;;;;;;5058384;28;20063;-71
2023/05/15 00:10:25;;;;;;;50.40;29.85;;;12.10;99.90;;;;;;5074826;28;20124;-71
2023/05/15 00:12:51;;;;;;;57.05;31.65;;;12.00;99.90;;;;;;5074662;28;20082;-71
2023/05/15 00:15:16;;;;;;;60.88;31.33;;;12.10;99.90;;;;;;5074698;28;20067;-71
2023/05/15 00:17:42;;;;;;;55.70;31.60;;;12.10;99.90;;;;;;5074623;28;20044;-71
2023/05/15 00:20:08;;;;;;;56.65;31.15;;;12.10;99.90;;;;;;5074572;28;20035;-71
2023/05/15 00:22:34;;;;;;;61.47;32.63;;;12.10;99.90;;;;;;5057871;28;20165;-71
2023/05/15 00:25:00;;;;;;;56.88;31.67;;;12.00;99.90;;;;;;5074566;28;20126;-71
2023/05/15 00:27:26;;;;;;;55.88;30.85;;;12.00;99.90;;;;;;5074536;28;20047;-71
2023/05/15 00:29:52;;;;;;;61.20;32.08;;;12.00;99.90;;;;;;5074432;28;20119;-71
2023/05/15 00:32:17;;;;;;;57.83;31.92;;;12.10;99.90;;;;;;5074620;28;20127;-71
2023/05/15 00:34:43;;;;;;;61.97;33.10;;;12.10;99.90;;;;;;5074680;28;20530;-71
2023/05/15 00:37:09;;;;;;;54.85;32.38;;;12.10;99.90;;;;;;5074248;28;20117;-71
2023/05/15 00:39:35;;;;;;;59.17;32.78;;;12.00;99.90;;;;;;5074621;28;20097;-71
2023/05/15 00:42:02;;;;;;;59.60;32.55;;;11.90;99.90;;;;;;5091840;28;20032;-71
2023/05/15 00:44:30;;;;;;;53.97;31.88;;;11.90;99.90;;;;;;5074540;28;20083;-71
2023/05/15 00:46:57;;;;;;;56.78;30.23;;;11.90;99.90;;;;;;5057504;28;20491;-71
2023/05/15 00:49:22;;;;;;;50.03;29.85;;;11.90;99.90;;;;;;5074290;28;20086;-71
2023/05/15 00:51:49;;;;;;;49.58;30.15;;;11.80;99.90;;;;;;5074043;28;20415;-71
2023/05/15 00:54:15;;;;;;;53.15;31.90;;;11.90;99.90;;;;;;5074306;28;20454;-71
2023/05/15 00:56:43;;;;;;;53.65;30.70;;;11.90;99.90;;;;;;5073873;28;20040;-71
2023/05/15 00:59:09;;;;;;;48.78;29.05;;;11.80;99.90;;;;;;5057615;28;20075;-71
2023/05/15 01:01:35;;;;;;;48.70;29.55;;;11.70;99.90;;;;;;5073893;28;20047;-70
2023/05/15 01:04:02;;;;;;;50.92;30.08;;;11.70;99.90;;;;;;5073855;28;20040;-73
2023/05/15 01:06:29;;;;;;;52.15;31.17;;;11.70;99.90;;;;;;5073946;28;20498;-72
2023/05/15 01:08:56;;;;;;;47.50;27.85;;;11.70;99.90;;;;;;5073790;28;20043;-71
2023/05/15 01:11:24;;;;;;;52.58;30.70;;;11.60;99.90;;;;;;5057080;28;20032;-71
2023/05/15 01:13:50;;;;;;;51.15;29.75;;;11.60;99.90;;;;;;5057156;28;20039;-71
2023/05/15 01:16:15;;;;;;;53.40;30.73;;;11.60;99.90;;;;;;5073684;28;20032;-71
2023/05/15 01:18:41;;;;;;;57.33;30.63;;;11.60;99.90;;;;;;5073930;28;20071;-71
2023/05/15 01:21:38;;;;;;;51.05;29.95;;;11.60;99.90;;;;;;5073632;28;20111;-72
2023/05/15 01:24:22;;;;;;;56.35;32.90;;;11.60;99.90;;;;;;5073739;28;20046;-71
2023/05/15 01:26:53;;;;;;;53.65;30.65;;;11.70;99.90;;;;;;5073634;28;20126;-70
2023/05/15 01:29:42;;;;;;;53.85;30.60;;;11.70;99.90;;;;;;5073726;28;20071;-73
2023/05/15 01:32:14;;;;;;;51.15;30.02;;;11.70;99.90;;;;;;5073758;28;20048;-71
2023/05/15 01:34:52;;;;;;;52.72;31.05;;;11.60;99.90;;;;;;5056749;28;20123;-72
2023/05/15 01:37:23;;;;;;;53.70;30.73;;;11.60;99.90;;;;;;5073377;28;20534;-73
2023/05/15 01:39:59;;;;;;;56.22;31.80;;;11.70;99.90;;;;;;5073558;28;20122;-71
2023/05/15 01:42:29;;;;;;;53.33;29.55;;;11.60;99.90;;;;;;5073486;28;20040;-71
2023/05/15 01:45:00;;;;;;;52.72;30.30;;;11.60;99.90;;;;;;5073814;28;20398;-71
2023/05/15 01:47:32;;;;;;;53.60;31.33;;;11.60;99.90;;;;;;5073272;28;20055;-71
2023/05/15 01:50:01;;;;;;;53.88;30.75;;;11.60;99.90;;;;;;5073535;28;20503;-71
2023/05/15 01:52:34;;;;;;;58.72;31.83;;;11.60;99.90;;;;;;5074748;28;20035;-70
2023/05/15 01:55:01;;;;;;;56.92;31.67;;;11.60;99.90;;;;;;5095869;28;20032;-71
2023/05/15 01:57:29;;;;;;;60.15;30.92;;;11.60;99.90;;;;;;5060387;28;20050;-71
2023/05/15 01:59:57;;;;;;;58.80;32.22;;;11.70;99.90;;;;;;5077600;28;20047;-71
2023/05/15 02:02:23;;;;;;;60.08;32.28;;;11.70;99.90;;;;;;5077470;28;20036;-71
2023/05/15 02:04:50;;;;;;;54.15;31.17;;;11.70;99.90;;;;;;5060542;28;20533;-71
2023/05/15 02:07:16;;;;;;;51.60;30.00;;;11.70;99.90;;;;;;5095368;28;20071;-71
2023/05/15 02:09:42;;;;;;;55.78;32.17;;;11.70;99.90;;;;;;5077238;28;20078;-71
2023/05/15 02:12:10;;;;;;;52.13;30.55;;;11.70;99.90;;;;;;5077433;28;20076;-71
2023/05/15 02:14:37;;;;;;;53.55;29.88;;;11.70;99.90;;;;;;5077082;28;20072;-71
2023/05/15 02:17:03;;;;;;;53.05;30.50;;;11.70;99.90;;;;;;5059929;28;20578;-71
2023/05/15 02:19:29;;;;;;;55.65;32.55;;;11.60;99.90;;;;;;5076894;28;20120;-71
2023/05/15 02:21:54;;;;;;;54.50;31.95;;;11.70;99.90;;;;;;5060458;28;20087;-71
2023/05/15 02:24:20;;;;;;;56.75;31.95;;;11.70;99.90;;;;;;5076892;28;20122;-71
2023/05/15 02:27:06;;;;;;;60.35;33.80;;;11.80;99.90;;;;;;5076706;28;20036;-71
2023/05/15 02:29:59;;;;;;;49.80;30.23;;;11.70;99.90;;;;;;5076820;28;20131;-71
2023/05/15 02:32:30;;;;;;;54.20;30.98;;;11.80;99.90;;;;;;5076956;28;20048;-71
2023/05/15 02:35:17;;;;;;;50.38;29.73;;;11.70;99.90;;;;;;5076693;28;20044;-71
2023/05/15 02:37:46;;;;;;;53.03;30.52;;;11.60;99.90;;;;;;5076581;28;20097;-71
2023/05/15 02:40:14;;;;;;;54.00;31.17;;;11.60;99.90;;;;;;5059922;28;20031;-71
2023/05/15 02:42:40;;;;;;;53.72;29.45;;;11.60;99.90;;;;;;5059855;28;20063;-71
2023/05/15 02:45:08;;;;;;;55.17;30.08;;;11.50;99.90;;;;;;5076826;28;20043;-71
2023/05/15 02:47:35;;;;;;;51.60;31.27;;;11.50;99.90;;;;;;5076163;28;20414;-71
2023/05/15 02:50:03;;;;;;;55.67;30.30;;;11.50;99.90;;;;;;5076767;28;20146;-71
2023/05/15 02:52:28;;;;;;;56.45;31.10;;;11.50;99.90;;;;;;5076295;28;20036;-71
2023/05/15 02:54:54;;;;;;;50.13;31.17;;;11.60;99.90;;;;;;5076615;28;20051;-71
2023/05/15 02:57:19;;;;;;;53.80;30.77;;;11.60;99.90;;;;;;5075998;28;20039;-71
2023/05/15 02:59:45;;;;;;;51.45;29.63;;;11.60;99.90;;;;;;5076268;28;20036;-71
2023/05/15 03:02:10;;;;;;;53.13;29.40;;;11.50;99.90;;;;;;5076014;28;20120;-71
2023/05/15 03:04:36;;;;;;;50.40;28.55;;;11.40;99.90;;;;;;5075460;28;20036;-71
2023/05/15 03:07:02;;;;;;;53.35;29.88;;;11.40;99.90;;;;;;5076033;28;20119;-71
2023/05/15 03:09:27;;;;;;;59.42;29.20;;;11.20;99.90;;;;;;5059286;28;20040;-71
2023/05/15 03:11:53;;;;;;;50.22;27.38;;;11.30;99.90;;;;;;5076286;28;20044;-71
2023/05/15 03:14:18;;;;;;;54.30;28.67;;;11.10;99.90;;;;;;5059503;28;20036;-71
2023/05/15 03:16:44;;;;;;;58.13;27.25;;;11.00;99.90;;;;;;5076015;28;20040;-71
2023/05/15 03:19:09;;;;;;;47.72;24.95;;;11.00;99.90;;;;;;5075756;28;20169;-71
2023/05/15 03:21:35;;;;;;;44.80;26.10;;;10.90;99.90;;;;;;5075871;28;20043;-71
2023/05/15 03:24:01;;;;;;;44.08;25.00;;;10.80;99.90;;;;;;5075665;28;20039;-71
2023/05/15 03:26:26;;;;;;;41.08;23.92;;;11.00;99.90;;;;;;5075704;28;20042;-71
2023/05/15 03:28:52;;;;;;;45.90;25.80;;;11.00;99.90;;;;;;5075649;28;20453;-71
2023/05/15 03:31:18;;;;;;;43.00;25.10;;;11.00;99.90;;;;;;5059013;28;20105;-71
2023/05/15 03:33:48;;;;;;;39.67;23.60;;;11.00;99.90;;;;;;5075856;28;20044;-71
2023/05/15 03:36:14;;;;;;;42.95;25.75;;;10.90;99.90;;;;;;5093679;28;20047;-71
2023/05/15 03:38:40;;;;;;;44.10;25.85;;;10.90;99.90;;;;;;5075205;28;20036;-71
2023/05/15 03:41:05;;;;;;;52.90;29.13;;;10.90;99.90;;;;;;5075474;28;20039;-71
2023/05/15 03:43:31;;;;;;;52.92;29.27;;;10.80;99.90;;;;;;5093436;28;20062;-71
2023/05/15 03:45:58;;;;;;;56.70;29.67;;;10.80;99.90;;;;;;5075173;28;20085;-71
2023/05/15 03:48:23;;;;;;;54.85;30.58;;;10.70;99.90;;;;;;5075201;28;20048;-71
2023/05/15 03:50:49;;;;;;;56.28;30.75;;;10.80;99.90;;;;;;5093355;28;20112;-71
2023/05/15 03:53:15;;;;;;;54.35;27.35;;;10.80;99.90;;;;;;5093199;28;20040;-71
2023/05/15 03:55:41;;;;;;;51.72;28.58;;;10.80;99.90;;;;;;5093470;28;20043;-71
2023/05/15 03:58:06;;;;;;;51.90;26.77;;;10.80;99.90;;;;;;5074869;28;20044;-71
2023/05/15 04:00:32;;;;;;;46.53;25.88;;;10.70;99.90;;;;;;5093251;28;20036;-71
2023/05/15 04:02:57;;;;;;;50.67;26.67;;;10.70;99.90;;;;;;5074790;28;20121;-71
2023/05/15 04:05:23;;;;;;;48.72;26.10;;;10.60;99.90;;;;;;5074862;28;20036;-71
2023/05/15 04:07:48;;;;;;;47.92;24.50;;;10.60;99.90;;;;;;5092668;28;20051;-71
2023/05/15 04:10:14;;;;;;;48.03;25.77;;;10.60;99.90;;;;;;5093153;28;20047;-71
2023/05/15 04:12:39;;;;;;;42.83;23.98;;;10.50;99.90;;;;;;5075033;28;20046;-71
2023/05/15 04:15:20;;;;;;;48.83;24.92;;;10.50;99.90;;;;;;5074096;28;20040;-71
2023/05/15 04:17:47;;;;;;;46.22;24.50;;;10.50;99.90;;;;;;5092457;28;20087;-71
2023/05/15 04:20:15;;;;;;;45.83;23.45;;;10.50;99.90;;;;;;5074627;28;20075;-71
2023/05/15 04:22:41;;;;;;;42.20;23.25;;;10.40;99.90;;;;;;5074588;28;20043;-72
2023/05/15 04:25:08;;;;;;;43.47;23.98;;;10.40;99.90;;;;;;5057985;28;20336;-72
2023/05/15 04:27:34;;;;;;;43.40;22.30;;;10.40;99.90;;;;;;5057613;28;20047;-72
2023/05/15 04:30:00;;;;;;;41.00;21.90;;;10.50;99.90;;;;;;5074695;28;20109;-72
2023/05/15 04:32:26;;;;;;;35.80;20.50;;;10.40;99.90;;;;;;5092649;28;20070;-72
2023/05/15 04:34:52;;;;;;;34.47;20.20;;;10.40;99.90;;;;;;5057697;28;20040;-71
2023/05/15 04:37:18;;;;;;;34.85;19.65;;;10.30;99.90;;;;;;5074082;28;20039;-72
2023/05/15 04:39:43;;;;;;;32.78;18.92;;;10.30;99.90;;;;;;5074437;28;20040;-73
2023/05/15 04:42:09;;;;;;;32.58;19.70;;;10.40;99.90;;;;;;5074305;28;20075;-73
2023/05/15 04:44:35;;;;;;;35.72;20.38;;;10.40;99.90;;;;;;5057597;28;20078;-73
2023/05/15 04:47:00;;;;;;;33.90;20.40;;;10.30;99.90;;;;;;5074073;28;20036;-71
2023/05/15 04:49:26;;;;;;;35.90;22.00;;;10.40;99.90;;;;;;5074057;28;20035;-71
2023/05/15 04:51:51;;;;;;;37.90;22.60;;;10.40;99.90;;;;;;5074433;28;20035;-71
2023/05/15 04:54:17;;;;;;;40.92;22.67;;;10.40;99.90;;;;;;5092399;28;20039;-71
2023/05/15 04:56:44;;;;;;;40.47;25.23;;;10.40;99.90;;;;;;5074162;28;20036;-71
2023/05/15 04:59:09;;;;;;;41.72;25.05;;;10.40;99.90;;;;;;5073973;28;20039;-71
2023/05/15 05:01:36;;;;;;;44.20;26.08;;;10.50;99.90;;;;;;5073765;28;20040;-70
2023/05/15 05:04:02;;;;;;;42.47;27.20;;;10.50;99.90;;;;;;5121458;22;20044;-67
2023/05/15 05:06:27;;;;;;;46.47;26.70;;;10.40;99.90;;;;;;5112067;28;20689;-67
2023/05/15 05:08:53;;;;;;;43.03;26.13;;;10.60;99.90;;;;;;5111123;28;20457;-67
2023/05/15 05:11:18;;;;;;;41.60;27.10;;;10.60;99.90;;;;;;5112421;28;20126;-67
2023/05/15 05:13:44;;;;;;;45.53;27.42;;;10.70;99.90;;;;;;5112222;28;20065;-67
2023/05/15 05:16:09;;;;;;;44.75;27.23;;;10.60;99.90;;;;;;5112245;28;20031;-67
2023/05/15 05:18:36;;;;;;;43.10;28.35;;;10.60;99.90;;;;;;5112004;28;20040;-67
2023/05/15 05:21:02;;;;;;;42.53;25.45;;;10.70;99.90;;;;;;5112106;28;20039;-67
2023/05/15 05:23:28;;;;;;;37.95;25.08;;;10.80;99.90;;;;;;5112316;28;20032;-67
2023/05/15 05:25:54;;;;;;;40.72;24.85;;;10.80;99.90;;;;;;5112156;28;20043;-67
2023/05/15 05:28:20;;;;;;;37.65;23.13;;;10.70;99.90;;;;;;5111735;28;20044;-67
2023/05/15 05:30:46;;;;;;;31.85;22.25;;;10.80;99.90;;;;;;5112125;28;20123;-67
2023/05/15 05:33:12;;;;;;;36.33;22.95;;;10.80;99.90;;;;;;5111986;28;20044;-67
2023/05/15 05:35:37;;;;;;;31.35;20.58;;;10.90;99.90;;;;;;5110696;28;20050;-67
2023/05/15 05:38:03;;;;;;;27.85;20.98;;;11.00;99.90;;;;;;5111960;28;20080;-67
2023/05/15 05:40:29;;;;;;;31.20;19.88;;;11.10;99.90;;;;;;5112129;28;20047;-67
2023/05/15 05:42:59;;;;;;;26.67;19.48;;;11.20;99.90;;;;;;5111929;28;20036;-67
2023/05/15 05:45:25;;;;;;;26.05;18.50;;;11.50;99.90;;;;;;5111894;28;20109;-66
2023/05/15 05:47:50;;;;;;;26.88;16.70;;;11.80;99.90;;;;;;5110259;28;20098;-67
2023/05/15 05:50:16;;;;;;;22.67;16.20;;;12.20;99.90;;;;;;5111902;28;20039;-67
2023/05/15 05:52:41;;;;;;;21.70;17.20;;;12.30;99.90;;;;;;5111965;28;20044;-67
2023/05/15 05:55:07;;;;;;;23.88;15.88;;;12.30;99.90;;;;;;5111995;28;20079;-67
2023/05/15 05:57:33;;;;;;;23.67;16.75;;;12.20;99.90;;;;;;5110264;28;20043;-67
2023/05/15 05:59:59;;;;;;;21.30;17.10;;;12.30;99.90;;;;;;5111819;28;20044;-67
2023/05/15 06:02:25;;;;;;;25.40;17.08;;;12.00;99.90;;;;;;5111555;28;20071;-66
2023/05/15 06:04:50;;;;;;;24.05;17.27;;;12.30;99.90;;;;;;5111745;28;20046;-67
2023/05/15 06:07:16;;;;;;;25.63;16.73;;;12.50;99.90;;;;;;5110229;28;20044;-67
2023/05/15 06:09:42;;;;;;;26.30;17.23;;;12.70;99.90;;;;;;5111894;28;20473;-67
2023/05/15 06:12:08;;;;;;;21.35;16.35;;;12.80;99.90;;;;;;5112110;28;20514;-67
2023/05/15 06:14:33;;;;;;;21.17;15.85;;;12.70;99.90;;;;;;5111828;28;20038;-67
2023/05/15 06:16:59;;;;;;;25.35;17.13;;;12.80;99.90;;;;;;5111420;28;20043;-67
2023/05/15 06:19:25;;;;;;;22.83;15.65;;;13.10;99.90;;;;;;5110440;28;20491;-66
2023/05/15 06:21:51;;;;;;;24.00;17.15;;;13.60;99.90;;;;;;5111355;28;20475;-67
2023/05/15 06:24:17;;;;;;;25.35;15.32;;;13.90;99.90;;;;;;5111712;28;20160;-67
2023/05/15 06:26:43;;;;;;;20.58;15.60;;;14.40;99.90;;;;;;5111486;28;20114;-67
2023/05/15 06:29:08;;;;;;;21.33;16.35;;;14.70;99.90;;;;;;5111549;28;20043;-67
2023/05/15 06:31:34;;;;;;;23.55;15.85;;;14.80;99.90;;;;;;5110174;28;20043;-67
2023/05/15 06:33:59;;;;;;;21.45;14.52;;;14.60;99.90;;;;;;5093048;28;20043;-67
2023/05/15 06:36:25;;;;;;;20.80;14.52;;;14.60;99.90;;;;;;5111167;28;20031;-68
2023/05/15 06:38:51;;;;;;;22.90;15.73;;;14.70;99.90;;;;;;5111617;28;20039;-68
2023/05/15 06:41:16;;;;;;;25.13;17.27;;;14.80;99.90;;;;;;5114864;28;20043;-68
2023/05/15 06:43:42;;;;;;;25.13;17.05;;;15.20;99.90;;;;;;5114912;28;20089;-68
2023/05/15 06:46:07;;;;;;;23.67;16.40;;;15.50;99.90;;;;;;5114983;28;20046;-68
2023/05/15 06:48:33;;;;;;;26.00;17.90;;;15.90;99.90;;;;;;5113559;28;20078;-68
2023/05/15 06:50:58;;;;;;;20.88;15.88;;;16.10;99.90;;;;;;5115435;28;20040;-68
2023/05/15 06:53:24;;;;;;;22.73;15.77;;;16.50;99.90;;;;;;5115216;28;20413;-68
2023/05/15 06:55:49;;;;;;;19.77;14.68;;;16.60;99.90;;;;;;5114872;28;20042;-68
2023/05/15 06:58:16;;;;;;;18.30;14.27;;;16.40;99.90;;;;;;5114705;28;20127;-68
2023/05/15 07:00:43;;;;;;;18.10;13.98;;;16.00;99.90;;;;;;5114976;28;20066;-68
2023/05/15 07:03:09;;;;;;;17.02;13.43;;;15.70;99.90;;;;;;5114437;28;20562;-67
2023/05/15 07:05:34;;;;;;;16.80;12.20;;;15.30;99.90;;;;;;5114756;28;20070;-68
2023/05/15 07:08:00;;;;;;;17.80;12.40;;;15.30;99.90;;;;;;5114628;28;20043;-67
2023/05/15 07:10:25;;;;;;;21.27;12.05;;;15.60;99.90;;;;;;5114622;28;20075;-68
2023/05/15 07:12:51;;;;;;;15.55;11.55;;;16.10;99.90;;;;;;5114550;28;20035;-67
2023/05/15 07:15:16;;;;;;;16.58;11.38;;;16.10;99.90;;;;;;5114399;28;20039;-68
2023/05/15 07:17:42;;;;;;;17.02;12.38;;;16.50;99.90;;;;;;5114110;28;20043;-65
2023/05/15 07:20:08;;;;;;;14.85;10.98;;;16.70;99.90;;;;;;5113607;28;20114;-66
2023/05/15 07:22:34;;;;;;;13.45;10.73;;;17.00;99.90;;;;;;5112638;28;20035;-67
2023/05/15 07:24:59;;;;;;;17.27;10.93;;;17.00;99.90;;;;;;5113825;28;20036;-67
2023/05/15 07:27:25;;;;;;;15.63;10.60;;;17.00;99.90;;;;;;5113970;28;20074;-67
2023/05/15 07:29:52;;;;;;;14.50;10.32;;;17.30;99.90;;;;;;5114298;28;20096;-67
2023/05/15 07:32:17;;;;;;;12.57;10.00;;;17.80;99.90;;;;;;5114089;28;20507;-67
2023/05/15 07:34:43;;;;;;;13.93;9.98;;;17.30;99.90;;;;;;5112872;28;20050;-67
2023/05/15 07:37:08;;;;;;;15.77;10.90;;;17.10;99.90;;;;;;5095718;28;20042;-67
2023/05/15 07:39:34;;;;;;;14.35;10.63;;;17.20;99.90;;;;;;5114161;28;20039;-67
2023/05/15 07:42:00;;;;;;;12.80;9.85;;;17.80;99.90;;;;;;5113983;28;20037;-65
2023/05/15 07:44:25;;;;;;;11.65;9.75;;;17.70;99.90;;;;;;5113975;28;20112;-66
2023/05/15 07:46:51;;;;;;;11.63;9.43;;;17.90;99.90;;;;;;5113922;28;20495;-67
2023/05/15 07:49:16;;;;;;;12.65;9.57;;;18.10;99.90;;;;;;5113901;28;20035;-68
2023/05/15 07:51:42;;;;;;;16.05;10.63;;;17.90;99.90;;;;;;5113760;28;20566;-68
2023/05/15 07:54:07;;;;;;;12.50;9.00;;;17.90;99.90;;;;;;5112823;28;20059;-68
2023/05/15 07:56:33;;;;;;;12.10;9.70;;;18.20;99.90;;;;;;5114007;28;20126;-68
2023/05/15 07:58:59;;;;;;;14.45;10.65;;;17.90;99.90;;;;;;5116461;28;20074;-67
2023/05/15 08:01:24;;;;;;;12.77;9.82;;;17.60;99.90;;;;;;5113755;28;20111;-68
2023/05/15 08:03:50;;;;;;;15.13;10.75;;;17.90;99.90;;;;;;5113635;28;20233;-69
2023/05/15 08:06:15;;;;;;;13.55;9.77;;;18.20;99.90;;;;;;5113330;28;20043;-69
2023/05/15 08:08:41;;;;;;;15.32;10.07;;;18.20;99.90;;;;;;5115151;28;20118;-69
2023/05/15 08:11:06;;;;;;;13.60;10.55;;;18.10;99.90;;;;;;5117936;28;20101;-69
2023/05/15 08:13:32;;;;;;;16.42;9.25;;;18.30;99.90;;;;;;5112913;28;20483;-69
2023/05/15 08:15:58;;;;;;;15.65;9.60;;;18.10;99.90;;;;;;5113393;28;20043;-69
2023/05/15 08:18:23;;;;;;;14.38;10.60;;;18.20;99.90;;;;;;5113444;28;20039;-69
2023/05/15 08:20:49;;;;;;;15.02;10.43;;;18.20;99.90;;;;;;5112507;28;20126;-68
2023/05/15 08:23:14;;;;;;;12.02;9.15;;;18.00;99.90;;;;;;5113539;28;20380;-69
2023/05/15 08:25:40;;;;;;;13.27;9.02;;;18.10;99.90;;;;;;5112046;28;20040;-69
2023/05/15 08:28:05;;;;;;;12.35;8.77;;;18.10;99.90;;;;;;5113234;28;20039;-69
2023/05/15 08:30:31;;;;;;;12.63;10.23;;;18.10;99.90;;;;;;5113344;28;20039;-69
2023/05/15 08:32:57;;;;;;;11.70;9.55;;;18.00;99.90;;;;;;5113292;28;20031;-69
2023/05/15 08:35:22;;;;;;;11.27;8.80;;;17.70;99.90;;;;;;5113253;28;20039;-69
2023/05/15 08:37:48;;;;;;;10.27;8.75;;;18.10;99.90;;;;;;5112710;28;20075;-69
2023/05/15 08:40:14;;;;;;;13.23;8.35;;;18.40;99.90;;;;;;5112916;28;20036;-69
2023/05/15 08:42:46;;;;;;;12.13;9.02;;;18.40;99.90;;;;;;5112833;28;20039;-69
2023/05/15 08:45:13;;;;;;;13.87;9.40;;;18.20;99.90;;;;;;5094912;28;20071;-69
2023/05/15 08:47:40;;;;;;;14.90;10.68;;;18.20;99.90;;;;;;5112777;28;20043;-69
2023/05/15 08:50:14;;;;;;;11.80;9.15;;;18.40;99.90;;;;;;5113031;28;20403;-69
2023/05/15 08:52:45;;;;;;;14.43;8.80;;;18.60;99.90;;;;;;5112657;28;20050;-69
2023/05/15 08:55:13;;;;;;;10.52;8.55;;;18.70;99.90;;;;;;5111291;28;20051;-68
2023/05/15 08:57:40;;;;;;;10.95;7.68;;;19.00;99.60;;;;;;5111002;28;20040;-69
2023/05/15 09:00:07;;;;;;;11.60;9.15;;;18.90;99.30;;;;;;5112578;28;20038;-69
2023/05/15 09:02:37;;;;;;;10.70;8.13;;;18.80;99.50;;;;;;5110480;28;20057;-69
2023/05/15 09:05:05;;;;;;;13.20;8.50;;;19.30;99.70;;;;;;5111464;28;20036;-69
2023/05/15 09:07:30;;;;;;;9.85;8.13;;;19.50;99.50;;;;;;5112202;28;20040;-69
2023/05/15 09:09:57;;;;;;;9.50;7.20;;;19.40;98.50;;;;;;5111090;28;20051;-69
2023/05/15 09:12:24;;;;;;;10.43;7.90;;;19.20;99.10;;;;;;5111319;28;20126;-69
2023/05/15 09:14:50;;;;;;;8.35;7.47;;;19.50;99.30;;;;;;5112419;28;20043;-69
2023/05/15 09:17:16;;;;;;;8.80;6.97;;;19.20;98.90;;;;;;5111923;28;20045;-69
2023/05/15 09:19:42;;;;;;;11.50;8.38;;;19.40;98.80;;;;;;5111169;28;20088;-69
2023/05/15 09:22:25;;;;;;;12.20;8.20;;;19.60;99.10;;;;;;5112139;28;20063;-69
2023/05/15 09:24:56;;;;;;;9.95;8.63;;;19.70;99.10;;;;;;5111167;28;20039;-69
2023/05/15 09:27:23;;;;;;;14.18;9.00;;;19.50;99.10;;;;;;5112070;28;20042;-69
2023/05/15 09:29:53;;;;;;;10.85;8.48;;;19.50;98.50;;;;;;5112296;28;20066;-69
2023/05/15 09:32:19;;;;;;;9.20;7.47;;;19.50;98.80;;;;;;5093793;28;20036;-69
2023/05/15 09:34:45;;;;;;;9.50;8.07;;;19.30;98.30;;;;;;5112065;28;20065;-69
2023/05/15 09:37:28;;;;;;;8.88;7.00;;;18.90;98.10;;;;;;5111642;28;20074;-69
2023/05/15 09:39:54;;;;;;;10.35;8.48;;;19.20;98.50;;;;;;5110768;28;20054;-69
2023/05/15 09:42:23;;;;;;;8.85;7.95;;;19.20;98.80;;;;;;5111984;28;20035;-69
2023/05/15 09:44:49;;;;;;;12.27;8.75;;;19.20;99.00;;;;;;5112070;28;20071;-69
2023/05/15 09:47:17;;;;;;;9.80;8.40;;;18.60;99.90;;;;;;5111597;28;20081;-69
2023/05/15 09:49:44;;;;;;;10.93;8.50;;;18.90;99.90;;;;;;5110771;28;20103;-69
2023/05/15 09:52:10;;;;;;;9.90;7.55;;;18.90;99.60;;;;;;5111980;28;20043;-69
2023/05/15 09:54:36;;;;;;;9.60;8.02;;;19.10;99.70;;;;;;5111873;28;20039;-69
2023/05/15 09:57:10;;;;;;;12.85;9.10;;;19.00;99.90;;;;;;5110459;28;20403;-69
2023/05/15 09:59:43;;;;;;;11.32;8.05;;;18.50;99.40;;;;;;5111950;28;20036;-69
2023/05/15 10:02:34;;;;;;;10.73;8.10;;;18.60;99.90;;;;;;5111635;28;20032;-69
2023/05/15 10:05:00;;;;;;;10.65;7.85;;;18.80;99.90;;;;;;5112003;28;20114;-69
2023/05/15 10:07:28;;;;;;;9.60;8.50;;;18.70;99.90;;;;;;5111683;28;20080;-69
2023/05/15 10:09:54;;;;;;;13.30;8.95;;;18.60;99.90;;;;;;5111670;28;20043;-69
2023/05/15 10:12:20;;;;;;;14.48;8.30;;;18.70;99.80;;;;;;5111594;28;20511;-69
2023/05/15 10:14:47;;;;;;;12.15;8.35;;;18.60;99.90;;;;;;5113956;28;20089;-69
2023/05/15 10:17:13;;;;;;;14.13;7.75;;;18.60;99.90;;;;;;5097237;28;20273;-69
2023/05/15 10:19:40;;;;;;;10.25;8.70;;;18.20;99.60;;;;;;5115754;28;20129;-69
2023/05/15 10:22:08;;;;;;;8.82;7.10;;;18.10;99.90;;;;;;5114113;28;20479;-69
2023/05/15 10:24:35;;;;;;;10.15;8.27;;;18.50;99.90;;;;;;5114245;28;20036;-69
2023/05/15 10:27:01;;;;;;;12.98;7.55;;;18.80;99.90;;;;;;5113985;28;20156;-69
2023/05/15 10:29:28;;;;;;;9.40;7.45;;;18.80;99.90;;;;;;5114064;28;20039;-69
2023/05/15 10:31:54;;;;;;;9.38;7.50;;;18.80;99.50;;;;;;5113940;28;20518;-69
2023/05/15 10:34:20;;;;;;;8.73;7.47;;;18.40;98.90;;;;;;5115416;27;20123;-69
2023/05/15 10:36:48;;;;;;;11.38;8.73;;;18.40;99.10;;;;;;5113734;28;20119;-69
2023/05/15 10:39:15;;;;;;;9.93;8.82;;;18.60;99.80;;;;;;5114067;28;20031;-69
2023/05/15 10:41:42;;;;;;;13.88;9.52;;;18.50;99.90;;;;;;5113808;28;20081;-69
2023/05/15 10:44:09;;;;;;;16.02;9.60;;;18.60;99.90;;;;;;5115285;28;20441;-69
2023/05/15 10:46:36;;;;;;;13.00;7.57;;;18.40;99.90;;;;;;5114884;28;20043;-69
2023/05/15 10:49:02;;;;;;;10.10;7.43;;;18.50;99.90;;;;;;5115025;28;20040;-69
2023/05/15 10:51:29;;;;;;;9.35;7.97;;;18.30;99.90;;;;;;5115074;28;20031;-68
2023/05/15 10:53:55;;;;;;;9.65;6.38;;;18.10;99.90;;;;;;5115149;28;20116;-70
2023/05/15 10:56:29;;;;;;;9.95;7.22;;;18.10;99.90;;;;;;5115264;27;20070;-69
2023/05/15 10:58:55;;;;;;;10.90;6.68;;;18.20;99.90;;;;;;5115006;28;20044;-70
2023/05/15 11:01:29;;;;;;;8.65;6.38;;;18.30;99.90;;;;;;5115066;28;20047;-69
2023/05/15 11:04:13;;;;;;;10.38;6.63;;;18.00;99.90;;;;;;5126417;22;20047;-76
2023/05/15 11:06:48;;;;;;;8.50;7.13;;;18.20;99.90;;;;;;5113217;28;20089;-79
2023/05/15 11:09:23;;;;;;;8.43;5.82;;;18.30;99.90;;;;;;5114118;28;20043;-77
2023/05/15 11:11:55;;;;;;;8.05;5.93;;;18.70;99.90;;;;;;5095436;28;20631;-77
2023/05/15 11:14:23;;;;;;;8.27;6.07;;;19.00;99.90;;;;;;5113761;28;20041;-77
2023/05/15 11:16:51;;;;;;;8.02;7.05;;;19.00;99.60;;;;;;5113157;28;20054;-76
2023/05/15 11:19:53;;;;;;;9.50;7.00;;;18.60;98.60;;;;;;5112862;28;20043;-77
2023/05/15 11:22:34;;;;;;;10.45;6.80;;;18.90;99.10;;;;;;5113350;28;20043;-77
2023/05/15 11:25:13;;;;;;;9.05;6.65;;;19.00;99.70;;;;;;5095846;28;20032;-77
2023/05/15 11:27:44;;;;;;;7.55;6.57;;;19.20;99.90;;;;;;5113289;28;20148;-77
2023/05/15 11:30:23;;;;;;;8.52;6.90;;;18.90;99.50;;;;;;5113113;28;20039;-77
2023/05/15 11:33:00;;;;;;;7.82;6.97;;;18.90;99.90;;;;;;5113342;28;20035;-77
2023/05/15 11:35:32;;;;;;;10.25;6.93;;;18.20;99.90;;;;;;5112843;28;20042;-77
2023/05/15 11:38:14;;;;;;;11.38;7.25;;;18.60;99.90;;;;;;5112950;28;20427;-77
2023/05/15 11:40:51;;;;;;;9.48;8.02;;;18.60;99.90;;;;;;5112895;28;20035;-77
2023/05/15 11:43:24;;;;;;;12.73;8.02;;;18.70;99.90;;;;;;5112779;28;20043;-77
2023/05/15 11:45:55;;;;;;;8.63;7.40;;;18.60;99.90;;;;;;5112909;28;20039;-77
2023/05/15 11:48:30;;;;;;;9.23;7.07;;;18.50;99.90;;;;;;5112490;28;20046;-77
2023/05/15 11:50:55;;;;;;;7.38;6.65;;;18.70;99.90;;;;;;5096040;28;20053;-76
2023/05/15 11:53:22;;;;;;;8.68;7.65;;;18.70;99.90;;;;;;5096074;28;20118;-77
2023/05/15 11:55:50;;;;;;;10.30;7.57;;;18.70;99.90;;;;;;5112424;28;20050;-76
2023/05/15 11:58:17;;;;;;;10.30;8.55;;;18.90;99.90;;;;;;5095310;28;20040;-77
2023/05/15 12:00:45;;;;;;;8.05;7.25;;;18.30;99.90;;;;;;5113779;28;20363;-78
2023/05/15 12:03:26;;;;;;;8.77;7.15;;;18.40;99.90;;;;;;5096106;28;20035;-76
2023/05/15 12:05:52;;;;;;;11.02;8.02;;;18.10;99.90;;;;;;5111919;28;20517;-76
2023/05/15 12:08:22;;;;;;;12.48;8.32;;;18.30;99.90;;;;;;5095295;28;20039;-76
2023/05/15 12:10:48;;;;;;;9.88;7.30;;;18.20;99.90;;;;;;5112377;28;20035;-75
2023/05/15 12:13:14;;;;;;;9.63;8.18;;;18.10;99.90;;;;;;5095280;28;20443;-75
2023/05/15 12:15:43;;;;;;;8.82;7.63;;;18.30;99.90;;;;;;5095089;28;20127;-75
2023/05/15 12:18:09;;;;;;;10.82;7.97;;;18.30;99.90;;;;;;5111796;28;20510;-75
2023/05/15 12:20:36;;;;;;;9.05;7.55;;;18.10;99.90;;;;;;5111939;28;20035;-75
2023/05/15 12:23:04;;;;;;;10.93;7.40;;;17.90;99.90;;;;;;5112427;28;20048;-78
2023/05/15 12:25:31;;;;;;;8.77;7.53;;;17.90;99.90;;;;;;5096098;28;20036;-78
2023/05/15 12:27:58;;;;;;;10.68;8.68;;;17.90;99.90;;;;;;5096032;28;20189;-78
2023/05/15 12:30:24;;;;;;;9.38;7.57;;;17.70;99.90;;;;;;5112960;28;20048;-78
2023/05/15 12:32:50;;;;;;;12.90;8.48;;;17.80;99.90;;;;;;5112495;28;20050;-78
2023/05/15 12:35:16;;;;;;;11.77;8.15;;;17.80;99.90;;;;;;5096725;28;20062;-78